sensor_id;sensor_type;location;lat;lon;timestamp;pressure;altitude;pressure_sealevel;temperature;humidity
49945;BME280;35838;49.134;9.212;2022-12-13T00:01:13;99389.84;;;-2.60;73.96
49945;BME280;35838;49.134;9.212;2022-12-13T00:02:47;99383.06;;;-2.61;74.35
49945;BME280;35838;49.134;9.212;2022-12-13T00:04:23;99383.25;;;-2.56;74.00
49945;BME280;35838;49.134;9.212;2022-12-13T00:05:59;99377.16;;;-2.60;73.70
49945;BME280;35838;49.134;9.212;2022-12-13T00:07:37;99380.53;;;-2.61;73.72
49945;BME280;35838;49.134;9.212;2022-12-13T00:09:12;99371.81;;;-2.66;73.67
49945;BME280;35838;49.134;9.212;2022-12-13T00:10:46;99371.81;;;-2.66;73.91
49945;BME280;35838;49.134;9.212;2022-12-13T00:12:20;99376.66;;;-2.72;73.86
49945;BME280;35838;49.134;9.212;2022-12-13T00:13:55;99370.31;;;-2.82;74.30
49945;BME280;35838;49.134;9.212;2022-12-13T00:15:29;99373.06;;;-2.77;74.39
49945;BME280;35838;49.134;9.212;2022-12-13T00:17:03;99364.75;;;-2.73;74.15
49945;BME280;35838;49.134;9.212;2022-12-13T00:18:37;99369.66;;;-2.78;74.52
49945;BME280;35838;49.134;9.212;2022-12-13T00:20:09;99364.75;;;-2.73;74.21
49945;BME280;35838;49.134;9.212;2022-12-13T00:21:46;99360.50;;;-2.74;74.21
49945;BME280;35838;49.134;9.212;2022-12-13T00:23:20;99357.94;;;-2.74;74.25
49945;BME280;35838;49.134;9.212;2022-12-13T00:24:54;99359.25;;;-2.84;73.98
49945;BME280;35838;49.134;9.212;2022-12-13T00:26:30;99356.22;;;-2.75;73.85
49945;BME280;35838;49.134;9.212;2022-12-13T00:28:05;99364.63;;;-2.76;73.48
49945;BME280;35838;49.134;9.212;2022-12-13T00:29:39;99360.91;;;-2.85;73.65
49945;BME280;35838;49.134;9.212;2022-12-13T00:31:13;99360.16;;;-2.82;73.53
49945;BME280;35838;49.134;9.212;2022-12-13T00:32:47;99354.38;;;-2.79;73.58
49945;BME280;35838;49.134;9.212;2022-12-13T00:34:21;99348.28;;;-2.83;73.75
49945;BME280;35838;49.134;9.212;2022-12-13T00:35:55;99351.75;;;-2.81;73.67
49945;BME280;35838;49.134;9.212;2022-12-13T00:37:32;99354.03;;;-2.87;73.50
49945;BME280;35838;49.134;9.212;2022-12-13T00:39:06;99349.00;;;-2.86;73.84
49945;BME280;35838;49.134;9.212;2022-12-13T00:40:43;99344.69;;;-2.88;73.63
49945;BME280;35838;49.134;9.212;2022-12-13T00:42:17;99347.41;;;-2.84;73.46
49945;BME280;35838;49.134;9.212;2022-12-13T00:43:51;99342.47;;;-2.80;73.27
49945;BME280;35838;49.134;9.212;2022-12-13T00:45:25;99344.88;;;-2.84;73.28
49945;BME280;35838;49.134;9.212;2022-12-13T00:46:59;99337.19;;;-2.85;73.45
49945;BME280;35838;49.134;9.212;2022-12-13T00:48:33;99340.59;;;-2.85;73.62
49945;BME280;35838;49.134;9.212;2022-12-13T00:50:08;99349.00;;;-2.86;73.49
49945;BME280;35838;49.134;9.212;2022-12-13T00:51:42;99340.59;;;-2.85;73.48
49945;BME280;35838;49.134;9.212;2022-12-13T00:53:20;99339.78;;;-2.84;73.76
49945;BME280;35838;49.134;9.212;2022-12-13T00:54:54;99344.06;;;-2.83;73.55
49945;BME280;35838;49.134;9.212;2022-12-13T00:56:30;99344.06;;;-2.83;73.74
49945;BME280;35838;49.134;9.212;2022-12-13T00:58:04;99346.47;;;-2.86;73.63
49945;BME280;35838;49.134;9.212;2022-12-13T00:59:38;99349.28;;;-2.79;73.33
49945;BME280;35838;49.134;9.212;2022-12-13T01:01:14;99348.91;;;-2.89;73.27
49945;BME280;35838;49.134;9.212;2022-12-13T01:02:48;99349.75;;;-2.88;73.44
49945;BME280;35838;49.134;9.212;2022-12-13T01:04:22;99347.03;;;-2.93;73.81
49945;BME280;35838;49.134;9.212;2022-12-13T01:05:56;99340.34;;;-2.91;73.22
49945;BME280;35838;49.134;9.212;2022-12-13T01:07:30;99339.72;;;-3.06;73.92
49945;BME280;35838;49.134;9.212;2022-12-13T01:09:11;99332.91;;;-3.07;73.98
49945;BME280;35838;49.134;9.212;2022-12-13T01:10:47;99333.75;;;-3.07;74.10
49945;BME280;35838;49.134;9.212;2022-12-13T01:12:21;99332.09;;;-3.06;74.29
49945;BME280;35838;49.134;9.212;2022-12-13T01:13:55;99327.78;;;-3.09;74.39
49945;BME280;35838;49.134;9.212;2022-12-13T01:15:29;99332.91;;;-3.07;74.30
49945;BME280;35838;49.134;9.212;2022-12-13T01:17:03;99329.81;;;-3.00;74.04
49945;BME280;35838;49.134;9.212;2022-12-13T01:18:39;99329.19;;;-2.94;73.86
49945;BME280;35838;49.134;9.212;2022-12-13T01:20:14;99331.50;;;-3.01;73.81
49945;BME280;35838;49.134;9.212;2022-12-13T01:21:48;99329.19;;;-2.94;73.60
49945;BME280;35838;49.134;9.212;2022-12-13T01:23:22;99325.69;;;-2.98;73.28
49945;BME280;35838;49.134;9.212;2022-12-13T01:24:56;99333.16;;;-3.01;73.27
49945;BME280;35838;49.134;9.212;2022-12-13T01:26:30;99334.16;;;-2.97;73.39
49945;BME280;35838;49.134;9.212;2022-12-13T01:28:04;99338.38;;;-2.98;73.62
49945;BME280;35838;49.134;9.212;2022-12-13T01:29:38;99330.56;;;-3.03;73.78
49945;BME280;35838;49.134;9.212;2022-12-13T01:31:14;99334.75;;;-3.03;73.50
49945;BME280;35838;49.134;9.212;2022-12-13T01:32:49;99332.22;;;-3.03;73.42
49945;BME280;35838;49.134;9.212;2022-12-13T01:34:23;99339.63;;;-3.08;73.77
49945;BME280;35838;49.134;9.212;2022-12-13T01:35:59;99339.34;;;-3.16;74.07
49945;BME280;35838;49.134;9.212;2022-12-13T01:37:33;99335.72;;;-3.21;74.17
49945;BME280;35838;49.134;9.212;2022-12-13T01:39:08;99336.72;;;-3.17;74.25
49945;BME280;35838;49.134;9.212;2022-12-13T01:40:47;99332.38;;;-3.20;74.24
49945;BME280;35838;49.134;9.212;2022-12-13T01:42:27;99337.59;;;-3.17;74.20
49945;BME280;35838;49.134;9.212;2022-12-13T01:44:03;99335.47;;;-3.27;74.26
49945;BME280;35838;49.134;9.212;2022-12-13T01:45:37;99332.38;;;-3.20;74.48
49945;BME280;35838;49.134;9.212;2022-12-13T01:47:09;99330.94;;;-3.15;74.17
49945;BME280;35838;49.134;9.212;2022-12-13T01:48:46;99329.06;;;-3.19;74.16
49945;BME280;35838;49.134;9.212;2022-12-13T01:50:28;99330.13;;;-3.13;73.99
49945;BME280;35838;49.134;9.212;2022-12-13T01:52:05;99328.38;;;-3.15;73.81
49945;BME280;35838;49.134;9.212;2022-12-13T01:53:42;99327.25;;;-3.21;73.83
49945;BME280;35838;49.134;9.212;2022-12-13T01:55:19;99325.66;;;-3.19;73.76
49945;BME280;35838;49.134;9.212;2022-12-13T01:56:58;99323.72;;;-3.25;73.71
49945;BME280;35838;49.134;9.212;2022-12-13T01:58:32;99328.94;;;-3.22;73.56
49945;BME280;35838;49.134;9.212;2022-12-13T02:00:09;99325.72;;;-3.18;73.93
49945;BME280;35838;49.134;9.212;2022-12-13T02:01:45;99324.78;;;-3.20;73.80
49945;BME280;35838;49.134;9.212;2022-12-13T02:03:21;99321.31;;;-3.22;73.97
49945;BME280;35838;49.134;9.212;2022-12-13T02:04:58;99318.91;;;-3.19;74.07
49945;BME280;35838;49.134;9.212;2022-12-13T02:06:38;99325.53;;;-3.22;74.13
49945;BME280;35838;49.134;9.212;2022-12-13T02:08:14;99319.84;;;-3.17;74.12
49945;BME280;35838;49.134;9.212;2022-12-13T02:09:50;99319.22;;;-3.11;73.80
49945;BME280;35838;49.134;9.212;2022-12-13T02:11:25;99320.81;;;-3.13;73.67
49945;BME280;35838;49.134;9.212;2022-12-13T02:13:02;99323.97;;;-3.19;73.70
49945;BME280;35838;49.134;9.212;2022-12-13T02:14:37;99317.97;;;-3.21;73.66
49945;BME280;35838;49.134;9.212;2022-12-13T02:16:13;99320.50;;;-3.21;73.59
49945;BME280;35838;49.134;9.212;2022-12-13T02:18:05;99319.03;;;-3.16;73.89
49945;BME280;35838;49.134;9.212;2022-12-13T02:21:48;99316.69;;;-3.11;73.59
49945;BME280;35838;49.134;9.212;2022-12-13T02:24:04;99313.06;;;-3.16;73.65
49945;BME280;35838;49.134;9.212;2022-12-13T02:26:05;99309.53;;;-3.20;73.70
49945;BME280;35838;49.134;9.212;2022-12-13T02:28:07;99312.78;;;-3.24;73.71
49945;BME280;35838;49.134;9.212;2022-12-13T02:30:17;99320.50;;;-3.21;73.95
49945;BME280;35838;49.134;9.212;2022-12-13T02:31:57;99307.75;;;-3.22;73.83
49945;BME280;35838;49.134;9.212;2022-12-13T02:33:43;99310.34;;;-3.21;73.71
49945;BME280;35838;49.134;9.212;2022-12-13T02:35:22;99307.75;;;-3.22;73.36
49945;BME280;35838;49.134;9.212;2022-12-13T02:37:03;99310.22;;;-3.24;73.84
49945;BME280;35838;49.134;9.212;2022-12-13T02:38:47;99312.22;;;-3.17;73.51
49945;BME280;35838;49.134;9.212;2022-12-13T02:40:29;99306.16;;;-3.20;73.77
49945;BME280;35838;49.134;9.212;2022-12-13T02:42:04;99303.56;;;-3.22;73.68
49945;BME280;35838;49.134;9.212;2022-12-13T02:43:46;99309.28;;;-3.26;74.02
49945;BME280;35838;49.134;9.212;2022-12-13T02:45:29;99307.59;;;-3.25;73.94
49945;BME280;35838;49.134;9.212;2022-12-13T02:47:08;99303.19;;;-3.31;74.31
49945;BME280;35838;49.134;9.212;2022-12-13T02:48:45;99305.72;;;-3.31;74.41
49945;BME280;35838;49.134;9.212;2022-12-13T02:50:21;99300.09;;;-3.24;74.08
49945;BME280;35838;49.134;9.212;2022-12-13T02:51:56;99300.44;;;-3.36;74.05
49945;BME280;35838;49.134;9.212;2022-12-13T02:53:32;99294.22;;;-3.42;74.47
49945;BME280;35838;49.134;9.212;2022-12-13T02:55:10;99301.03;;;-3.41;74.28
49945;BME280;35838;49.134;9.212;2022-12-13T02:56:52;99303.03;;;-3.34;74.58
49945;BME280;35838;49.134;9.212;2022-12-13T02:58:29;99301.09;;;-3.40;74.46
49945;BME280;35838;49.134;9.212;2022-12-13T03:00:08;99306.13;;;-3.41;74.67
49945;BME280;35838;49.134;9.212;2022-12-13T03:01:53;99310.31;;;-3.42;74.88
49945;BME280;35838;49.134;9.212;2022-12-13T03:03:41;99309.47;;;-3.42;74.56
49945;BME280;35838;49.134;9.212;2022-12-13T03:05:27;99309.56;;;-3.39;74.79
49945;BME280;35838;49.134;9.212;2022-12-13T03:07:25;99297.22;;;-3.32;74.53
49945;BME280;35838;49.134;9.212;2022-12-13T03:09:18;99300.44;;;-3.36;74.24
49945;BME280;35838;49.134;9.212;2022-12-13T03:11:03;99297.56;;;-3.43;74.47
49945;BME280;35838;49.134;9.212;2022-12-13T03:12:44;99302.97;;;-3.36;74.23
49945;BME280;35838;49.134;9.212;2022-12-13T03:14:38;99307.13;;;-3.38;74.35
49945;BME280;35838;49.134;9.212;2022-12-13T03:16:23;99308.53;;;-3.44;74.54
49945;BME280;35838;49.134;9.212;2022-12-13T03:18:03;99301.03;;;-3.41;74.32
49945;BME280;35838;49.134;9.212;2022-12-13T03:19:45;99305.38;;;-3.39;74.17
49945;BME280;35838;49.134;9.212;2022-12-13T03:21:19;99308.53;;;-3.44;74.07
49945;BME280;35838;49.134;9.212;2022-12-13T03:22:54;99305.13;;;-3.45;74.05
49945;BME280;35838;49.134;9.212;2022-12-13T03:24:29;99299.25;;;-3.44;74.25
49945;BME280;35838;49.134;9.212;2022-12-13T03:26:08;99307.56;;;-3.47;73.79
49945;BME280;35838;49.134;9.212;2022-12-13T03:27:43;99301.44;;;-3.52;74.17
49945;BME280;35838;49.134;9.212;2022-12-13T03:29:17;99303.19;;;-3.51;74.37
49945;BME280;35838;49.134;9.212;2022-12-13T03:30:51;99301.50;;;-3.50;74.43
49945;BME280;35838;49.134;9.212;2022-12-13T03:32:25;99296.94;;;-3.59;74.47
49945;BME280;35838;49.134;9.212;2022-12-13T03:34:02;99290.72;;;-3.66;74.65
49945;BME280;35838;49.134;9.212;2022-12-13T03:35:36;99297.84;;;-3.57;74.48
49945;BME280;35838;49.134;9.212;2022-12-13T03:37:11;99291.56;;;-3.65;74.87
49945;BME280;35838;49.134;9.212;2022-12-13T03:38:46;99295.13;;;-3.62;74.77
49945;BME280;35838;49.134;9.212;2022-12-13T03:40:22;99292.25;;;-3.69;75.20
49945;BME280;35838;49.134;9.212;2022-12-13T03:41:56;99290.31;;;-3.75;75.25
49945;BME280;35838;49.134;9.212;2022-12-13T03:43:31;99286.50;;;-3.65;74.81
49945;BME280;35838;49.134;9.212;2022-12-13T03:45:06;99281.91;;;-3.74;75.26
49945;BME280;35838;49.134;9.212;2022-12-13T03:46:40;99293.19;;;-3.67;75.05
49945;BME280;35838;49.134;9.212;2022-12-13T03:48:14;99290.38;;;-3.73;75.10
49945;BME280;35838;49.134;9.212;2022-12-13T03:49:50;99288.03;;;-3.69;75.10
49945;BME280;35838;49.134;9.212;2022-12-13T03:51:25;99283.84;;;-3.68;74.92
49945;BME280;35838;49.134;9.212;2022-12-13T03:53:00;99282.97;;;-3.69;74.97
49945;BME280;35838;49.134;9.212;2022-12-13T03:54:34;99282.06;;;-3.71;75.10
49945;BME280;35838;49.134;9.212;2022-12-13T03:56:08;99277.84;;;-3.70;75.00
49945;BME280;35838;49.134;9.212;2022-12-13T03:57:42;99269.16;;;-3.75;75.10
49945;BME280;35838;49.134;9.212;2022-12-13T03:59:14;99272.75;;;-3.70;75.02
49945;BME280;35838;49.134;9.212;2022-12-13T04:00:48;99269.28;;;-3.72;74.64
49945;BME280;35838;49.134;9.212;2022-12-13T04:02:22;99264.81;;;-3.78;75.10
49945;BME280;35838;49.134;9.212;2022-12-13T04:03:56;99263.22;;;-3.76;75.14
49945;BME280;35838;49.134;9.212;2022-12-13T04:05:32;99269.28;;;-3.72;74.84
49945;BME280;35838;49.134;9.212;2022-12-13T04:07:06;99262.47;;;-3.73;74.77
49945;BME280;35838;49.134;9.212;2022-12-13T04:08:40;99263.81;;;-3.82;74.85
49945;BME280;35838;49.134;9.212;2022-12-13T04:10:15;99263.75;;;-3.83;74.52
49945;BME280;35838;49.134;9.212;2022-12-13T04:11:49;99270.88;;;-3.74;74.50
49945;BME280;35838;49.134;9.212;2022-12-13T04:13:35;99266.69;;;-3.74;74.49
49945;BME280;35838;49.134;9.212;2022-12-13T04:15:08;99272.50;;;-3.76;74.46
49945;BME280;35838;49.134;9.212;2022-12-13T04:16:42;99270.22;;;-3.70;74.50
49945;BME280;35838;49.134;9.212;2022-12-13T04:18:16;99279.16;;;-3.79;74.43
49945;BME280;35838;49.134;9.212;2022-12-13T04:19:51;99276.38;;;-3.85;74.58
49945;BME280;35838;49.134;9.212;2022-12-13T04:21:27;99271.03;;;-3.91;74.72
49945;BME280;35838;49.134;9.212;2022-12-13T04:23:01;99274.63;;;-3.86;74.44
49945;BME280;35838;49.134;9.212;2022-12-13T04:24:35;99275.44;;;-3.87;74.75
49945;BME280;35838;49.134;9.212;2022-12-13T04:26:09;99279.97;;;-3.80;74.58
49945;BME280;35838;49.134;9.212;2022-12-13T04:27:43;99280.03;;;-3.78;74.11
49945;BME280;35838;49.134;9.212;2022-12-13T04:29:18;99282.91;;;-3.90;74.55
49945;BME280;35838;49.134;9.212;2022-12-13T04:30:52;99274.97;;;-3.98;74.88
49945;BME280;35838;49.134;9.212;2022-12-13T04:32:26;99276.81;;;-3.94;74.79
49945;BME280;35838;49.134;9.212;2022-12-13T04:34:00;99283.84;;;-3.88;74.89
49945;BME280;35838;49.134;9.212;2022-12-13T04:35:34;99281.97;;;-3.92;74.96
49945;BME280;35838;49.134;9.212;2022-12-13T04:37:10;99276.63;;;-3.98;75.09
49945;BME280;35838;49.134;9.212;2022-12-13T04:38:44;99276.88;;;-3.92;74.93
49945;BME280;35838;49.134;9.212;2022-12-13T04:40:18;99273.66;;;-3.89;75.14
49945;BME280;35838;49.134;9.212;2022-12-13T04:41:50;99277.72;;;-3.93;74.82
49945;BME280;35838;49.134;9.212;2022-12-13T04:43:25;99276.25;;;-3.88;74.75
49945;BME280;35838;49.134;9.212;2022-12-13T04:44:59;99270.16;;;-3.91;74.84
49945;BME280;35838;49.134;9.212;2022-12-13T04:46:33;99270.91;;;-3.94;74.83
49945;BME280;35838;49.134;9.212;2022-12-13T04:48:07;99267.78;;;-3.88;74.83
49945;BME280;35838;49.134;9.212;2022-12-13T04:49:41;99269.28;;;-3.92;74.66
49945;BME280;35838;49.134;9.212;2022-12-13T04:51:15;99270.38;;;-3.87;74.55
49945;BME280;35838;49.134;9.212;2022-12-13T04:52:52;99270.50;;;-3.84;74.51
49945;BME280;35838;49.134;9.212;2022-12-13T04:54:26;99267.56;;;-3.93;74.33
49945;BME280;35838;49.134;9.212;2022-12-13T04:56:02;99262.81;;;-3.85;74.40
49945;BME280;35838;49.134;9.212;2022-12-13T04:57:36;99268.38;;;-3.94;74.23
49945;BME280;35838;49.134;9.212;2022-12-13T04:59:10;99266.75;;;-3.92;74.25
49945;BME280;35838;49.134;9.212;2022-12-13T05:00:45;99262.50;;;-3.93;74.48
49945;BME280;35838;49.134;9.212;2022-12-13T05:02:18;99259.28;;;-3.89;74.26
49945;BME280;35838;49.134;9.212;2022-12-13T05:03:52;99264.59;;;-3.83;74.15
49945;BME280;35838;49.134;9.212;2022-12-13T05:05:26;99265.56;;;-3.81;74.33
49945;BME280;35838;49.134;9.212;2022-12-13T05:07:01;99261.81;;;-3.89;74.10
49945;BME280;35838;49.134;9.212;2022-12-13T05:08:38;99266.03;;;-3.89;74.21
49945;BME280;35838;49.134;9.212;2022-12-13T05:10:13;99268.63;;;-3.88;74.25
49945;BME280;35838;49.134;9.212;2022-12-13T05:11:47;99271.16;;;-3.88;74.25
49945;BME280;35838;49.134;9.212;2022-12-13T05:13:21;99267.69;;;-3.90;74.17
49945;BME280;35838;49.134;9.212;2022-12-13T05:14:55;99259.28;;;-3.89;74.36
49945;BME280;35838;49.134;9.212;2022-12-13T05:16:29;99262.34;;;-3.96;74.45
49945;BME280;35838;49.134;9.212;2022-12-13T05:18:05;99262.63;;;-3.90;74.54
49945;BME280;35838;49.134;9.212;2022-12-13T05:19:39;99264.88;;;-3.96;74.75
49945;BME280;35838;49.134;9.212;2022-12-13T05:21:13;99260.88;;;-3.91;74.57
49945;BME280;35838;49.134;9.212;2022-12-13T05:22:47;99261.75;;;-3.90;74.53
49945;BME280;35838;49.134;9.212;2022-12-13T05:24:24;99255.00;;;-3.90;74.46
49945;BME280;35838;49.134;9.212;2022-12-13T05:25:58;99259.81;;;-3.96;74.54
49945;BME280;35838;49.134;9.212;2022-12-13T05:27:32;99257.94;;;-4.00;74.42
49945;BME280;35838;49.134;9.212;2022-12-13T05:29:06;99254.50;;;-4.02;74.47
49945;BME280;35838;49.134;9.212;2022-12-13T05:30:41;99250.53;;;-3.96;74.15
49945;BME280;35838;49.134;9.212;2022-12-13T05:32:15;99248.75;;;-3.98;73.93
49945;BME280;35838;49.134;9.212;2022-12-13T05:33:49;99251.06;;;-4.03;73.68
49945;BME280;35838;49.134;9.212;2022-12-13T05:35:23;99254.59;;;-3.99;73.80
49945;BME280;35838;49.134;9.212;2022-12-13T05:36:57;99251.28;;;-3.98;73.74
49945;BME280;35838;49.134;9.212;2022-12-13T05:38:31;99245.94;;;-4.04;73.82
49945;BME280;35838;49.134;9.212;2022-12-13T05:40:09;99256.03;;;-4.06;73.72
49945;BME280;35838;49.134;9.212;2022-12-13T05:41:43;99247.69;;;-4.03;73.28
49945;BME280;35838;49.134;9.212;2022-12-13T05:43:17;99245.59;;;-4.12;73.27
49945;BME280;35838;49.134;9.212;2022-12-13T05:44:51;99249.81;;;-4.13;73.34
49945;BME280;35838;49.134;9.212;2022-12-13T05:46:23;99247.38;;;-4.10;73.39
49945;BME280;35838;49.134;9.212;2022-12-13T05:47:57;99252.25;;;-4.14;73.55
49945;BME280;35838;49.134;9.212;2022-12-13T05:49:31;99253.28;;;-4.11;73.45
49945;BME280;35838;49.134;9.212;2022-12-13T05:51:05;99259.41;;;-4.05;73.36
49945;BME280;35838;49.134;9.212;2022-12-13T05:52:39;99252.25;;;-4.14;73.32
49945;BME280;35838;49.134;9.212;2022-12-13T05:54:14;99257.31;;;-4.14;73.23
49945;BME280;35838;49.134;9.212;2022-12-13T05:55:51;99248.94;;;-4.13;73.36
49945;BME280;35838;49.134;9.212;2022-12-13T05:57:26;99251.56;;;-4.12;73.25
49945;BME280;35838;49.134;9.212;2022-12-13T05:59:00;99253.19;;;-4.12;73.10
49945;BME280;35838;49.134;9.212;2022-12-13T06:00:34;99252.09;;;-4.19;73.33
49945;BME280;35838;49.134;9.212;2022-12-13T06:02:08;99245.69;;;-4.11;73.33
49945;BME280;35838;49.134;9.212;2022-12-13T06:03:42;99242.31;;;-4.10;72.73
49945;BME280;35838;49.134;9.212;2022-12-13T06:05:17;99242.94;;;-4.15;73.01
49945;BME280;35838;49.134;9.212;2022-12-13T06:06:51;99246.34;;;-4.15;72.96
49945;BME280;35838;49.134;9.212;2022-12-13T06:08:25;99247.13;;;-4.16;73.08
49945;BME280;35838;49.134;9.212;2022-12-13T06:09:59;99254.63;;;-4.19;72.92
49945;BME280;35838;49.134;9.212;2022-12-13T06:11:35;99253.00;;;-4.17;73.06
49945;BME280;35838;49.134;9.212;2022-12-13T06:13:09;99247.13;;;-4.16;73.06
49945;BME280;35838;49.134;9.212;2022-12-13T06:14:43;99243.66;;;-4.18;73.09
49945;BME280;35838;49.134;9.212;2022-12-13T06:16:17;99246.88;;;-4.22;73.39
49945;BME280;35838;49.134;9.212;2022-12-13T06:17:51;99245.78;;;-4.27;73.36
49945;BME280;35838;49.134;9.212;2022-12-13T06:19:26;99245.13;;;-4.23;73.42
49945;BME280;35838;49.134;9.212;2022-12-13T06:21:02;99243.91;;;-4.31;73.45
49945;BME280;35838;49.134;9.212;2022-12-13T06:22:36;99245.88;;;-4.26;73.55
49945;BME280;35838;49.134;9.212;2022-12-13T06:24:10;99242.53;;;-4.25;73.75
49945;BME280;35838;49.134;9.212;2022-12-13T06:25:44;99239.41;;;-4.19;73.31
49945;BME280;35838;49.134;9.212;2022-12-13T06:27:21;99242.59;;;-4.23;73.42
49945;BME280;35838;49.134;9.212;2022-12-13T06:28:55;99249.41;;;-4.22;73.37
49945;BME280;35838;49.134;9.212;2022-12-13T06:30:29;99244.53;;;-4.17;73.20
49945;BME280;35838;49.134;9.212;2022-12-13T06:32:03;99238.72;;;-4.15;73.00
49945;BME280;35838;49.134;9.212;2022-12-13T06:33:38;99253.00;;;-4.36;73.34
49945;BME280;35838;49.134;9.212;2022-12-13T06:35:12;99251.09;;;-4.41;74.11
49945;BME280;35838;49.134;9.212;2022-12-13T06:36:46;99246.31;;;-4.34;74.32
49945;BME280;35838;49.134;9.212;2022-12-13T06:38:20;99250.47;;;-4.36;74.50
49945;BME280;35838;49.134;9.212;2022-12-13T06:39:54;99249.63;;;-4.35;74.35
49945;BME280;35838;49.134;9.212;2022-12-13T06:41:28;99257.59;;;-4.28;74.17
49945;BME280;35838;49.134;9.212;2022-12-13T06:43:04;99258.19;;;-4.33;74.37
49945;BME280;35838;49.134;9.212;2022-12-13T06:44:40;99264.13;;;-4.33;74.46
49945;BME280;35838;49.134;9.212;2022-12-13T06:46:14;99261.81;;;-4.28;74.23
49945;BME280;35838;49.134;9.212;2022-12-13T06:47:48;99257.31;;;-4.34;74.81
49945;BME280;35838;49.134;9.212;2022-12-13T06:49:22;99271.00;;;-4.30;74.73
49945;BME280;35838;49.134;9.212;2022-12-13T06:50:59;99266.88;;;-4.28;74.91
49945;BME280;35838;49.134;9.212;2022-12-13T06:52:33;99267.88;;;-4.25;74.73
49945;BME280;35838;49.134;9.212;2022-12-13T06:54:07;99267.94;;;-4.23;74.75
49945;BME280;35838;49.134;9.212;2022-12-13T06:55:41;99266.88;;;-4.28;74.50
49945;BME280;35838;49.134;9.212;2022-12-13T06:57:15;99261.28;;;-4.21;74.08
49945;BME280;35838;49.134;9.212;2022-12-13T06:58:51;99262.72;;;-4.26;74.37
49945;BME280;35838;49.134;9.212;2022-12-13T07:00:25;99263.06;;;-4.18;74.13
49945;BME280;35838;49.134;9.212;2022-12-13T07:01:59;99258.22;;;-4.14;73.92
49945;BME280;35838;49.134;9.212;2022-12-13T07:03:34;99254.50;;;-4.02;73.76
49945;BME280;35838;49.134;9.212;2022-12-13T07:05:09;99258.56;;;-4.06;73.46
49945;BME280;35838;49.134;9.212;2022-12-13T07:06:43;99250.63;;;-3.94;72.87
49945;BME280;35838;49.134;9.212;2022-12-13T07:08:17;99253.91;;;-3.97;72.62
49945;BME280;35838;49.134;9.212;2022-12-13T07:09:51;99253.00;;;-3.97;72.76
49945;BME280;35838;49.134;9.212;2022-12-13T07:11:28;99262.31;;;-3.98;72.37
49945;BME280;35838;49.134;9.212;2022-12-13T07:13:03;99270.50;;;-4.03;72.39
49945;BME280;35838;49.134;9.212;2022-12-13T07:14:39;99266.16;;;-4.06;72.65
49945;BME280;35838;49.134;9.212;2022-12-13T07:16:14;99273.47;;;-4.12;72.59
49945;BME280;35838;49.134;9.212;2022-12-13T07:17:48;99274.56;;;-4.07;72.58
49945;BME280;35838;49.134;9.212;2022-12-13T07:19:23;99275.28;;;-4.10;72.57
49945;BME280;35838;49.134;9.212;2022-12-13T07:20:57;99268.50;;;-4.11;72.72
49945;BME280;35838;49.134;9.212;2022-12-13T07:22:31;99267.56;;;-4.13;72.74
49945;BME280;35838;49.134;9.212;2022-12-13T07:24:05;99273.03;;;-4.03;72.55
49945;BME280;35838;49.134;9.212;2022-12-13T07:25:40;99269.09;;;-3.97;72.01
49945;BME280;35838;49.134;9.212;2022-12-13T07:27:14;99270.81;;;-3.96;71.98
49945;BME280;35838;49.134;9.212;2022-12-13T07:28:48;99271.28;;;-4.04;72.47
49945;BME280;35838;49.134;9.212;2022-12-13T07:30:25;99271.25;;;-4.06;72.51
49945;BME280;35838;49.134;9.212;2022-12-13T07:31:59;99273.03;;;-4.03;72.50
49945;BME280;35838;49.134;9.212;2022-12-13T07:33:33;99280.09;;;-3.96;72.29
49945;BME280;35838;49.134;9.212;2022-12-13T07:35:08;99282.16;;;-3.87;72.21
49945;BME280;35838;49.134;9.212;2022-12-13T07:36:42;99284.59;;;-3.90;72.18
49945;BME280;35838;49.134;9.212;2022-12-13T07:38:16;99298.00;;;-3.93;72.51
49945;BME280;35838;49.134;9.212;2022-12-13T07:39:50;99288.91;;;-3.88;72.20
49945;BME280;35838;49.134;9.212;2022-12-13T07:41:25;99291.44;;;-3.88;71.95
49945;BME280;35838;49.134;9.212;2022-12-13T07:42:59;99291.72;;;-3.82;71.79
49945;BME280;35838;49.134;9.212;2022-12-13T07:44:33;99288.53;;;-3.78;72.13
49945;BME280;35838;49.134;9.212;2022-12-13T07:46:10;99289.16;;;-3.82;71.87
49945;BME280;35838;49.134;9.212;2022-12-13T07:47:44;99294.38;;;-3.79;71.66
49945;BME280;35838;49.134;9.212;2022-12-13T07:49:18;99293.09;;;-3.69;71.58
49945;BME280;35838;49.134;9.212;2022-12-13T07:50:52;99295.59;;;-3.70;71.54
49945;BME280;35838;49.134;9.212;2022-12-13T07:52:28;99301.25;;;-3.76;71.62
49945;BME280;35838;49.134;9.212;2022-12-13T07:54:02;99296.19;;;-3.76;71.54
49945;BME280;35838;49.134;9.212;2022-12-13T07:55:38;99299.06;;;-3.88;71.28
49945;BME280;35838;49.134;9.212;2022-12-13T07:57:12;99293.59;;;-3.78;71.32
49945;BME280;35838;49.134;9.212;2022-12-13T07:58:46;99300.13;;;-3.83;71.54
49945;BME280;35838;49.134;9.212;2022-12-13T08:00:20;99301.31;;;-3.74;71.50
49945;BME280;35838;49.134;9.212;2022-12-13T08:01:57;99305.13;;;-3.65;71.19
49945;BME280;35838;49.134;9.212;2022-12-13T08:03:31;99302.09;;;-3.56;70.36
49945;BME280;35838;49.134;9.212;2022-12-13T08:05:06;99303.78;;;-3.56;70.13
49945;BME280;35838;49.134;9.212;2022-12-13T08:06:40;99303.78;;;-3.56;70.19
49945;BME280;35838;49.134;9.212;2022-12-13T08:08:14;99301.81;;;-3.64;70.25
49945;BME280;35838;49.134;9.212;2022-12-13T08:09:48;99303.84;;;-3.55;70.13
49945;BME280;35838;49.134;9.212;2022-12-13T08:11:22;99306.53;;;-3.52;69.80
49945;BME280;35838;49.134;9.212;2022-12-13T08:12:57;99308.81;;;-3.58;69.65
49945;BME280;35838;49.134;9.212;2022-12-13T08:14:32;99304.94;;;-3.50;70.02
49945;BME280;35838;49.134;9.212;2022-12-13T08:16:09;99306.53;;;-3.52;70.26
49945;BME280;35838;49.134;9.212;2022-12-13T08:17:47;99308.66;;;-3.61;70.24
49945;BME280;35838;49.134;9.212;2022-12-13T08:19:21;99310.50;;;-3.57;70.23
49945;BME280;35838;49.134;9.212;2022-12-13T08:20:58;99304.00;;;-3.52;69.99
49945;BME280;35838;49.134;9.212;2022-12-13T08:22:32;99305.72;;;-3.51;70.03
49945;BME280;35838;49.134;9.212;2022-12-13T08:24:06;99300.84;;;-3.46;69.65
49945;BME280;35838;49.134;9.212;2022-12-13T08:25:40;99295.22;;;-3.39;69.58
49945;BME280;35838;49.134;9.212;2022-12-13T08:27:14;99300.75;;;-3.28;69.69
49945;BME280;35838;49.134;9.212;2022-12-13T08:28:48;99299.00;;;-3.29;69.29
49945;BME280;35838;49.134;9.212;2022-12-13T08:30:22;99302.88;;;-3.18;69.27